This is the latest recevied weather packets stored in our database for station/object N5GAH-13. If no packets are shown the sender has not sent any weather packets the latest 10 day(s).
| Time | Temp. | Humidity | Pressure | Rain* | Wind** | Luminosity | Snow |
|---|---|---|---|---|---|---|---|
| 1777847010 | 25.56° C | 35% | 1020.4 hPa | 0 mm | - | - | - |
| 1777845210 | 26.11° C | 35% | 1020.7 hPa | 0 mm | - | - | - |
| 1777843411 | 26.11° C | 34% | 1021.2 hPa | 0 mm | - | - | - |
| 1777841611 | 25° C | 37% | 1021.7 hPa | 0 mm | - | - | - |
| 1777839810 | 25° C | 37% | 1022.5 hPa | 0 mm | - | - | - |
| 1777838010 | 25.56° C | 37% | 1022.8 hPa | 0 mm | - | - | - |
| 1777836210 | 25° C | 37% | 1023.4 hPa | 0 mm | - | - | - |
| 1777834411 | 24.44° C | 39% | 1023.7 hPa | 0 mm | - | - | - |
| 1777832610 | 23.89° C | 40% | 1024.4 hPa | 0 mm | - | - | - |
| 1777830810 | 23.89° C | 41% | 1025.2 hPa | 0 mm | - | - | - |
| 1777829010 | 23.33° C | 43% | 1025.7 hPa | 0 mm | - | - | - |
| 1777827210 | 22.22° C | 45% | 1026.1 hPa | 0 mm | - | - | - |
| 1777825410 | 21.11° C | 49% | 1026.4 hPa | 0 mm | - | - | - |
| 1777823610 | 20° C | 53% | 1026.6 hPa | 0 mm | - | - | - |
| 1777821810 | 18.33° C | 58% | 1026.8 hPa | 0 mm | - | - | - |
| 1777820010 | 17.78° C | 60% | 1026.9 hPa | 0 mm | - | - | - |
| 1777816410 | 14.44° C | 74% | 1026.8 hPa | 0 mm | - | - | - |
| 1777814609 | 12.22° C | 79% | 1026.4 hPa | 0 mm | - | - | - |
| 1777812809 | 11.11° C | 80% | 1026.3 hPa | 0 mm | - | - | - |
| 1777811009 | 10.56° C | 80% | 1025.8 hPa | 0 mm | - | - | - |
| 1777809209 | 10.56° C | 80% | 1025.6 hPa | 0 mm | - | - | - |
| 1777807410 | 10.56° C | 79% | 1025.6 hPa | 0 mm | - | - | - |
| 1777803809 | 11.11° C | 77% | 1025.7 hPa | 0 mm | - | - | - |
| 1777800209 | 11.67° C | 76% | 1026 hPa | 0 mm | - | - | - |
| 1777798409 | 11.67° C | 75% | 1026.2 hPa | 0 mm | - | - | - |
* Rain latest hour (hover to see other rain measurements)
** Current wind speed in m/s (hover to see current wind gust speed)